< < Back
Terminal Aerodrome Forecast


Current Version              Previous Versions:   1  2  3  4  5  6  7  8  9  

Terminal Aerodrome Forecast

352
FTUS42 KCHS 290931 AAA
TAFSAV
TAF AMD
KSAV 290931Z 2910/3006 VRB03KT P6SM SCT015
     FM291400 07007KT P6SM SCT040
     FM300000 VRB03KT P6SM SCT015=



Latest METAR

027
SAUS80 KWBC 300600
MTRSAV
METAR KSAV 300553Z AUTO 27003KT 10SM CLR 26/24 A2998 RMK AO2 SLP150
T02560239 10294 20256 50002 TSNO $


USA.gov is the U.S. government's official web portal to all federal, state and local government web resources and services.